Eastpoint, FL (32328)

2:48 PM EDT on August 25, 2016 (GMT -0400)
Apalachicola Municipal | | Change Station

Elev 20 ft 29.73 °N, 85.03 °W | Updated 55 minutes ago

Partly Cloudy
Partly Cloudy
91 °F
Feels Like 97 °F
N
12
Wind Variable Wind from ESE

Today
High -- | Low -- °F
--% Chance of Precip.
Yesterday
High -- | Low -- °F
Precip. -- in
Pressure 30.09 in
Visibility 10.0 miles
Clouds Few 4800 ft
Heat Index 97 °F
Dew Point 70 °F
Humidity 50%
Rainfall 0.00 in
Snow Depth Not available.
7:13 AM 8:09 PM
Last Quarter, 43% visible
METAR KAAF 251753Z AUTO 11010KT 080V150 10SM FEW048 33/21 A3008 RMK AO2 SLP187 T03280211 10333 20239 58014
Pressure 30.09 in
Visibility 10.0 miles
Clouds Few 4800 ft
Heat Index 97 °F
Dew Point 70 °F
Humidity 50%
Rainfall 0.00 in
Snow Depth Not available.
7:13 AM 8:09 PM
Last Quarter, 43% visible
METAR KAAF 251753Z AUTO 11010KT 080V150 10SM FEW048 33/21 A3008 RMK AO2 SLP187 T03280211 10333 20239 58014
A tropical disturbance pushing toward the Bahamas, is expected to develop into a tropical depression or storm, and will likely target Florida and the Gulf Coast this weekend into next week.

Right now, the disturbance remains a broad area of low pressure pushing through the Dominican Republic and Haiti, headed toward the southeast Bahamas. Rainfall totals over 3 inches (with locally higher amounts) are expected in HispaƱiola, particularly over elevated terrain.

10-Day Weather Forecast

Almanac

Astronomy

Aug. 25, 2016 Rise Set
Actual Time
Civil Twilight
Nautical Twilight
Astronomical Twilight
Moon
Length of Visible Light
Length of Day
Tomorrow will be .
, % of the Moon is Illuminated

Today's Extremes

State Highs State Lows

Community

WunderPhotos

Upload Photos

1,934,890 photos uploaded!

WunderBlog® & News

Nearby

Air Quality

  Air Quality AQ Index Pollutant
Not available.

Snow Depth

Station Depth Elevation

Earthquake Activity

City Distance Mag. Time & Date
Minimum magnitude displayed is 2.5.

Coastal Water Temperatures

Place Temperature

Stations

Nearby Weather Stations

Station Location Temp. Windchill Dew Point Humidity Wind Precip. Elev Updated Type
                   

Watches & Warnings

There are currently no watches in effect.